Amavisti — V2CR5 — position and weather

sailwx.info

Track history (hours):
 
Tides and Currents Weather Stations Pressure Air Temp Water Temp Dewpoint Dewpoint Depression Visibility Wind Speed Wind Dir Waves Ship Positions

Amavisti

Last reported at 2017-Mar-30 12:33 UTC. Time now 2017-Mar-30 12:34 UTC.
Position N 53°54' E 011°27'.

Length 116 m; draft 5 m.

Type: Cargo ship. MMSI: 305086000.

Date/timePositionNaut miles runAvg speedWind from/ knotsBaromVisibWave heightAir tempDewpointWater temp
2017-Mar-30 12:33N 53°54' E 011°27'0 0.0
2017-Mar-30 11:33N 53°54' E 011°27'0 0.0
2017-Mar-30 10:33N 53°54' E 011°27'0 0.0
2017-Mar-30 09:33N 53°54' E 011°27'0 0.0
2017-Mar-30 08:33N 53°54' E 011°27'0 0.0
2017-Mar-30 07:33N 53°54' E 011°27'0 0.0
2017-Mar-30 06:33N 53°54' E 011°27'0 0.0
2017-Mar-30 05:33N 53°54' E 011°27'0 0.0
2017-Mar-30 04:33N 53°54' E 011°27'0 0.0
2017-Mar-30 03:33N 53°54' E 011°27'0 0.0
2017-Mar-30 02:33N 53°54' E 011°27'0 0.0
2017-Mar-30 01:33N 53°54' E 011°27'0 0.0
2017-Mar-30 00:33N 53°54' E 011°27'0 0.0
2017-Mar-29 23:33N 53°54' E 011°27'0 0.0
2017-Mar-29 22:33N 53°54' E 011°27'0 0.0
2017-Mar-29 21:33N 53°54' E 011°27'0 0.0
2017-Mar-29 20:27N 53°54' E 011°27'0 0.0
2017-Mar-29 19:33N 53°54' E 011°27'0 0.0
2017-Mar-29 18:33N 53°54' E 011°27'0 0.0
2017-Mar-29 17:33N 53°54' E 011°27'0 0.0
2017-Mar-29 16:33N 53°54' E 011°27'0 0.0
2017-Mar-29 15:33N 53°54' E 011°27'0 0.0
2017-Mar-29 14:30N 53°54' E 011°27'0 0.0
2017-Mar-29 13:33N 53°54' E 011°27'0 0.0
2017-Mar-29 12:33N 53°54' E 011°27'0 0.0
2017-Mar-29 11:33N 53°54' E 011°27'0 0.0
2017-Mar-29 10:33N 53°54' E 011°27'0 0.0
2017-Mar-29 09:27N 53°54' E 011°27'0 0.0
2017-Mar-29 08:33N 53°54' E 011°27'0 0.0
2017-Mar-29 07:33N 53°54' E 011°27'0 0.0
2017-Mar-29 06:33N 53°54' E 011°27'0 0.0
2017-Mar-29 05:31N 53°54' E 011°27'0 0.0
2017-Mar-29 04:31N 53°54' E 011°27'0 0.0
2017-Mar-29 03:28N 53°54' E 011°27'0 0.0
2017-Mar-29 02:31N 53°54' E 011°27'0 0.0
2017-Mar-29 01:31N 53°54' E 011°27'0 0.0
2017-Mar-29 00:31N 53°54' E 011°27'0 0.0
2017-Mar-28 23:32N 53°54' E 011°27'0 0.0
2017-Mar-28 22:32N 53°54' E 011°27'0 0.0
2017-Mar-28 21:31N 53°54' E 011°27'0 0.0
2017-Mar-28 20:31N 53°54' E 011°27'0 0.0
2017-Mar-28 19:31N 53°54' E 011°27'3 3.1
2017-Mar-28 18:33N 53°57' E 011°25'7 7.1
2017-Mar-28 17:33N 54°04' E 011°26'4 3.5
2017-Mar-28 16:33N 54°07' E 011°26'26 8.8
2017-Mar-28 13:34N 54°33' E 011°17'10 9.6
2017-Mar-28 12:33N 54°38' E 011°03'9 8.7
2017-Mar-28 11:33N 54°44' E 010°52'9 8.8
2017-Mar-28 10:33N 54°53' E 010°53'9 9.0
2017-Mar-28 09:33N 55°00' E 011°01'10 9.9
2017-Mar-28 08:33N 55°10' E 011°03'10 9.8
2017-Mar-28 07:29N 55°20' E 011°02'2110.4
2017-Mar-28 05:30N 55°39' E 010°46'23 9.7
2017-Mar-28 03:10N 55°60' E 011°02'2910.2
2017-Mar-28 00:21N 56°29' E 011°04'910.4
2017-Mar-27 23:31N 56°37' E 011°02'2010.2
2017-Mar-27 21:31N 56°53' E 010°37'5 5.5
2017-Mar-27 20:32N 56°56' E 010°29'0 0.0
2017-Mar-26 06:19N 56°56' E 010°29'0 0.0
2017-Mar-25 20:28N 56°56' E 010°29'10 0.4
2017-Mar-24 18:26N 56°59' E 010°13'910.0
2017-Mar-24 17:33N 57°05' E 010°00'2 1.5
2017-Mar-24 16:33N 57°04' E 009°58'0 0.0
2017-Mar-24 15:33N 57°04' E 009°58'0 0.0
2017-Mar-24 14:33N 57°04' E 009°58'0 0.0
2017-Mar-24 13:33N 57°04' E 009°58'0 0.0
2017-Mar-24 12:33N 57°04' E 009°58'0 0.0
2017-Mar-24 11:33N 57°04' E 009°58'0 0.0
2017-Mar-24 10:33N 57°04' E 009°58'0 0.0
2017-Mar-24 09:33N 57°04' E 009°58'0 0.0
2017-Mar-24 08:33N 57°04' E 009°58'0 0.0
2017-Mar-24 07:33N 57°04' E 009°58'0 0.0
2017-Mar-24 06:31N 57°04' E 009°58'0 0.0
2017-Mar-24 05:31N 57°04' E 009°58'0 0.0
2017-Mar-24 04:31N 57°04' E 009°58'0 0.0
2017-Mar-24 03:31N 57°04' E 009°58'0 0.0
2017-Mar-24 02:31N 57°04' E 009°58'0 0.0
2017-Mar-24 01:31N 57°04' E 009°58'0 0.0
2017-Mar-24 00:31N 57°04' E 009°58'0 0.0
2017-Mar-23 23:31N 57°04' E 009°58'0 0.0
2017-Mar-23 22:31N 57°04' E 009°58'0 0.0
2017-Mar-23 21:31N 57°04' E 009°58'0 0.0
2017-Mar-23 20:31N 57°04' E 009°58'0 0.0
2017-Mar-23 19:31N 57°04' E 009°58'0 0.0
2017-Mar-23 18:31N 57°04' E 009°58'0 0.0
2017-Mar-23 17:31N 57°04' E 009°58'0 0.0
2017-Mar-23 16:32N 57°04' E 009°58'0 0.0
2017-Mar-23 15:32N 57°04' E 009°58'0 0.0
2017-Mar-23 14:32N 57°04' E 009°58'0 0.0
2017-Mar-23 13:32N 57°04' E 009°58'0 0.0
2017-Mar-23 12:32N 57°04' E 009°58'0 0.0
2017-Mar-23 11:32N 57°04' E 009°58'0 0.0
2017-Mar-23 10:32N 57°04' E 009°58'0 0.0
2017-Mar-23 09:32N 57°04' E 009°58'0 0.0
2017-Mar-23 08:32N 57°04' E 009°58'0 0.0
2017-Mar-23 07:32N 57°04' E 009°58'0 0.0
2017-Mar-23 06:32N 57°04' E 009°58'0 0.0
2017-Mar-23 05:32N 57°04' E 009°58'0 0.0
2017-Mar-23 04:32N 57°04' E 009°58'0 0.0
2017-Mar-23 03:32N 57°04' E 009°58'0 0.0
2017-Mar-23 02:32N 57°04' E 009°58'0 0.0
2017-Mar-23 01:32N 57°04' E 009°58'0 0.0
2017-Mar-23 00:32N 57°04' E 009°58'0 0.0
2017-Mar-22 23:32N 57°04' E 009°58'0 0.0
2017-Mar-22 22:32N 57°04' E 009°58'0 0.0
2017-Mar-22 21:32N 57°04' E 009°58'0 0.0
2017-Mar-22 20:32N 57°04' E 009°58'0 0.0
2017-Mar-22 19:32N 57°04' E 009°58'0 0.0
2017-Mar-22 18:32N 57°04' E 009°58'0 0.0
2017-Mar-22 17:32N 57°04' E 009°58'0 0.0
2017-Mar-22 16:32N 57°04' E 009°58'0 0.0
2017-Mar-22 15:32N 57°04' E 009°58'0 0.0
2017-Mar-22 14:32N 57°04' E 009°58'0 0.0
2017-Mar-22 13:32N 57°04' E 009°58'0 0.0
2017-Mar-22 12:32N 57°04' E 009°58'1 1.1
2017-Mar-22 11:33N 57°05' E 009°59'7 7.0
2017-Mar-22 10:33N 57°01' E 010°09'7 6.7
2017-Mar-22 09:33N 56°58' E 010°21'31 4.8
2017-Mar-22 03:14N 57°26' E 010°43'5 6.8
2017-Mar-22 02:33N 57°31' E 010°44'7 6.6
2017-Mar-22 01:33N 57°38' E 010°45'6 6.2
2017-Mar-22 00:33N 57°44' E 010°46'7 6.8
2017-Mar-21 23:33N 57°47' E 010°35'9 9.3
2017-Mar-21 22:33N 57°43' E 010°19'87 7.9
2017-Mar-21 11:33N 56°53' E 008°07'1010.2
2017-Mar-21 10:32N 56°44' E 007°57'9 8.9
2017-Mar-21 09:33N 56°37' E 007°49'9 8.8
2017-Mar-21 08:32N 56°29' E 007°40'9 8.7
2017-Mar-21 07:32N 56°22' E 007°32'  
Track history (hours):
 
Tides and Currents Weather Stations Pressure Air Temp Water Temp Dewpoint Dewpoint Depression Visibility Wind Speed Wind Dir Waves Ship Positions

Amavisti

Last reported at 2017-Mar-30 12:33 UTC. Time now 2017-Mar-30 12:35 UTC.
Position N 53°54' E 011°27'.

Length 116 m; draft 5 m.

Type: Cargo ship. MMSI: 305086000.

Date/timePositionNaut miles runAvg speedWind from/ knotsBaromVisibWave heightAir tempDewpointWater temp
2017-Mar-30 12:33N 53°54' E 011°27'0 0.0
2017-Mar-30 11:33N 53°54' E 011°27'0 0.0
2017-Mar-30 10:33N 53°54' E 011°27'0 0.0
2017-Mar-30 09:33N 53°54' E 011°27'0 0.0
2017-Mar-30 08:33N 53°54' E 011°27'0 0.0
2017-Mar-30 07:33N 53°54' E 011°27'0 0.0
2017-Mar-30 06:33N 53°54' E 011°27'0 0.0
2017-Mar-30 05:33N 53°54' E 011°27'0 0.0
2017-Mar-30 04:33N 53°54' E 011°27'0 0.0
2017-Mar-30 03:33N 53°54' E 011°27'0 0.0
2017-Mar-30 02:33N 53°54' E 011°27'0 0.0
2017-Mar-30 01:33N 53°54' E 011°27'0 0.0
2017-Mar-30 00:33N 53°54' E 011°27'0 0.0
2017-Mar-29 23:33N 53°54' E 011°27'0 0.0
2017-Mar-29 22:33N 53°54' E 011°27'0 0.0
2017-Mar-29 21:33N 53°54' E 011°27'0 0.0
2017-Mar-29 20:27N 53°54' E 011°27'0 0.0
2017-Mar-29 19:33N 53°54' E 011°27'0 0.0
2017-Mar-29 18:33N 53°54' E 011°27'0 0.0
2017-Mar-29 17:33N 53°54' E 011°27'0 0.0
2017-Mar-29 16:33N 53°54' E 011°27'0 0.0
2017-Mar-29 15:33N 53°54' E 011°27'0 0.0
2017-Mar-29 14:30N 53°54' E 011°27'0 0.0
2017-Mar-29 13:33N 53°54' E 011°27'0 0.0
2017-Mar-29 12:33N 53°54' E 011°27'0 0.0
2017-Mar-29 11:33N 53°54' E 011°27'0 0.0
2017-Mar-29 10:33N 53°54' E 011°27'0 0.0
2017-Mar-29 09:27N 53°54' E 011°27'0 0.0
2017-Mar-29 08:33N 53°54' E 011°27'0 0.0
2017-Mar-29 07:33N 53°54' E 011°27'0 0.0
2017-Mar-29 06:33N 53°54' E 011°27'0 0.0
2017-Mar-29 05:31N 53°54' E 011°27'0 0.0
2017-Mar-29 04:31N 53°54' E 011°27'0 0.0
2017-Mar-29 03:28N 53°54' E 011°27'0 0.0
2017-Mar-29 02:31N 53°54' E 011°27'0 0.0
2017-Mar-29 01:31N 53°54' E 011°27'0 0.0
2017-Mar-29 00:31N 53°54' E 011°27'0 0.0
2017-Mar-28 23:32N 53°54' E 011°27'0 0.0
2017-Mar-28 22:32N 53°54' E 011°27'0 0.0
2017-Mar-28 21:31N 53°54' E 011°27'0 0.0
2017-Mar-28 20:31N 53°54' E 011°27'0 0.0
2017-Mar-28 19:31N 53°54' E 011°27'3 3.1
2017-Mar-28 18:33N 53°57' E 011°25'7 7.1
2017-Mar-28 17:33N 54°04' E 011°26'4 3.5
2017-Mar-28 16:33N 54°07' E 011°26'26 8.8
2017-Mar-28 13:34N 54°33' E 011°17'10 9.6
2017-Mar-28 12:33N 54°38' E 011°03'9 8.7
2017-Mar-28 11:33N 54°44' E 010°52'9 8.8
2017-Mar-28 10:33N 54°53' E 010°53'9 9.0
2017-Mar-28 09:33N 55°00' E 011°01'10 9.9
2017-Mar-28 08:33N 55°10' E 011°03'10 9.8
2017-Mar-28 07:29N 55°20' E 011°02'2110.4
2017-Mar-28 05:30N 55°39' E 010°46'23 9.7
2017-Mar-28 03:10N 55°60' E 011°02'2910.2
2017-Mar-28 00:21N 56°29' E 011°04'910.4
2017-Mar-27 23:31N 56°37' E 011°02'2010.2
2017-Mar-27 21:31N 56°53' E 010°37'5 5.5
2017-Mar-27 20:32N 56°56' E 010°29'0 0.0
2017-Mar-26 06:19N 56°56' E 010°29'0 0.0
2017-Mar-25 20:28N 56°56' E 010°29'10 0.4
2017-Mar-24 18:26N 56°59' E 010°13'910.0
2017-Mar-24 17:33N 57°05' E 010°00'2 1.5
2017-Mar-24 16:33N 57°04' E 009°58'0 0.0
2017-Mar-24 15:33N 57°04' E 009°58'0 0.0
2017-Mar-24 14:33N 57°04' E 009°58'0 0.0
2017-Mar-24 13:33N 57°04' E 009°58'0 0.0
2017-Mar-24 12:33N 57°04' E 009°58'0 0.0
2017-Mar-24 11:33N 57°04' E 009°58'0 0.0
2017-Mar-24 10:33N 57°04' E 009°58'0 0.0
2017-Mar-24 09:33N 57°04' E 009°58'0 0.0
2017-Mar-24 08:33N 57°04' E 009°58'0 0.0
2017-Mar-24 07:33N 57°04' E 009°58'0 0.0
2017-Mar-24 06:31N 57°04' E 009°58'0 0.0
2017-Mar-24 05:31N 57°04' E 009°58'0 0.0
2017-Mar-24 04:31N 57°04' E 009°58'0 0.0
2017-Mar-24 03:31N 57°04' E 009°58'0 0.0
2017-Mar-24 02:31N 57°04' E 009°58'0 0.0
2017-Mar-24 01:31N 57°04' E 009°58'0 0.0
2017-Mar-24 00:31N 57°04' E 009°58'0 0.0
2017-Mar-23 23:31N 57°04' E 009°58'0 0.0
2017-Mar-23 22:31N 57°04' E 009°58'0 0.0
2017-Mar-23 21:31N 57°04' E 009°58'0 0.0
2017-Mar-23 20:31N 57°04' E 009°58'0 0.0
2017-Mar-23 19:31N 57°04' E 009°58'0 0.0
2017-Mar-23 18:31N 57°04' E 009°58'0 0.0
2017-Mar-23 17:31N 57°04' E 009°58'0 0.0
2017-Mar-23 16:32N 57°04' E 009°58'0 0.0
2017-Mar-23 15:32N 57°04' E 009°58'0 0.0
2017-Mar-23 14:32N 57°04' E 009°58'0 0.0
2017-Mar-23 13:32N 57°04' E 009°58'0 0.0
2017-Mar-23 12:32N 57°04' E 009°58'0 0.0
2017-Mar-23 11:32N 57°04' E 009°58'0 0.0
2017-Mar-23 10:32N 57°04' E 009°58'0 0.0
2017-Mar-23 09:32N 57°04' E 009°58'0 0.0
2017-Mar-23 08:32N 57°04' E 009°58'0 0.0
2017-Mar-23 07:32N 57°04' E 009°58'0 0.0
2017-Mar-23 06:32N 57°04' E 009°58'0 0.0
2017-Mar-23 05:32N 57°04' E 009°58'0 0.0
2017-Mar-23 04:32N 57°04' E 009°58'0 0.0
2017-Mar-23 03:32N 57°04' E 009°58'0 0.0
2017-Mar-23 02:32N 57°04' E 009°58'0 0.0
2017-Mar-23 01:32N 57°04' E 009°58'0 0.0
2017-Mar-23 00:32N 57°04' E 009°58'0 0.0
2017-Mar-22 23:32N 57°04' E 009°58'0 0.0
2017-Mar-22 22:32N 57°04' E 009°58'0 0.0
2017-Mar-22 21:32N 57°04' E 009°58'0 0.0
2017-Mar-22 20:32N 57°04' E 009°58'0 0.0
2017-Mar-22 19:32N 57°04' E 009°58'0 0.0
2017-Mar-22 18:32N 57°04' E 009°58'0 0.0
2017-Mar-22 17:32N 57°04' E 009°58'0 0.0
2017-Mar-22 16:32N 57°04' E 009°58'0 0.0
2017-Mar-22 15:32N 57°04' E 009°58'0 0.0
2017-Mar-22 14:32N 57°04' E 009°58'0 0.0
2017-Mar-22 13:32N 57°04' E 009°58'0 0.0
2017-Mar-22 12:32N 57°04' E 009°58'1 1.1
2017-Mar-22 11:33N 57°05' E 009°59'7 7.0
2017-Mar-22 10:33N 57°01' E 010°09'7 6.7
2017-Mar-22 09:33N 56°58' E 010°21'31 4.8
2017-Mar-22 03:14N 57°26' E 010°43'5 6.8
2017-Mar-22 02:33N 57°31' E 010°44'7 6.6
2017-Mar-22 01:33N 57°38' E 010°45'6 6.2
2017-Mar-22 00:33N 57°44' E 010°46'7 6.8
2017-Mar-21 23:33N 57°47' E 010°35'9 9.3
2017-Mar-21 22:33N 57°43' E 010°19'87 7.9
2017-Mar-21 11:33N 56°53' E 008°07'1010.2
2017-Mar-21 10:32N 56°44' E 007°57'9 8.9
2017-Mar-21 09:33N 56°37' E 007°49'9 8.8
2017-Mar-21 08:32N 56°29' E 007°40'9 8.7
2017-Mar-21 07:32N 56°22' E 007°32'  

Dump ship's entire track history